Time;durP1;ratioP1;P1;durP2;ratioP2;P2;SDS_P1;SDS_P2;PMS_P1;PMS_P2;Temp;Humidity;BMP_temperature;BMP_pressure;BME280_temperature;BME280_humidity;BME280_pressure;Samples;Min_cycle;Max_cycle;Signal;HPM_P1;HPM_P2
2023/11/08 00:02:08;;;;;;;9.65;1.92;;;;;;;;;;4904466;29;20382;-73
2023/11/08 00:04:37;;;;;;;17.45;2.80;;;;;;;;;;4908564;29;20060;-73
2023/11/08 00:07:09;;;;;;;6.97;1.63;;;;;;;;;;4908826;29;20052;-75
2023/11/08 00:09:45;;;;;;;13.10;2.05;;;;;;;;;;4908401;29;20056;-72
2023/11/08 00:12:17;;;;;;;10.13;2.28;;;;;;;;;;4906129;29;20401;-74
2023/11/08 00:14:48;;;;;;;6.93;1.85;;;;;;;;;;4905986;29;20056;-73
2023/11/08 00:17:17;;;;;;;9.63;2.10;;;;;;;;;;4888871;29;20052;-73
2023/11/08 00:19:48;;;;;;;11.95;2.67;;;;;;;;;;4890496;29;20044;-72
2023/11/08 00:22:18;;;;;;;11.40;2.35;;;;;;;;;;4890156;29;20052;-72
2023/11/08 00:24:49;;;;;;;11.82;2.30;;;;;;;;;;4889982;29;20056;-73
2023/11/08 00:27:20;;;;;;;15.52;3.88;;;;;;;;;;4891675;29;20048;-74
2023/11/08 00:29:50;;;;;;;13.77;2.30;;;;;;;;;;4892535;29;20064;-72
2023/11/08 00:32:22;;;;;;;6.07;2.15;;;;;;;;;;4888407;29;20056;-74
2023/11/08 00:34:53;;;;;;;5.95;1.92;;;;;;;;;;4902692;29;20056;-74
2023/11/08 00:37:25;;;;;;;12.50;2.20;;;;;;;;;;4889284;29;20044;-74
2023/11/08 00:39:55;;;;;;;10.85;2.10;;;;;;;;;;4890027;29;20060;-74
2023/11/08 00:42:25;;;;;;;9.90;2.05;;;;;;;;;;4889179;29;20081;-73
2023/11/08 00:44:56;;;;;;;5.50;1.92;;;;;;;;;;4888645;29;20076;-76
2023/11/08 00:47:29;;;;;;;5.95;1.70;;;;;;;;;;4887780;29;20826;-73
2023/11/08 00:50:01;;;;;;;4.22;2.08;;;;;;;;;;4889642;29;20063;-73
2023/11/08 00:52:36;;;;;;;12.75;2.50;;;;;;;;;;4890113;29;20060;-79
2023/11/08 00:55:08;;;;;;;5.53;1.83;;;;;;;;;;4889428;29;20054;-75
2023/11/08 00:57:39;;;;;;;9.82;2.33;;;;;;;;;;4888078;29;20412;-75
2023/11/08 01:00:09;;;;;;;7.30;2.38;;;;;;;;;;4890311;29;20424;-74
2023/11/08 01:02:40;;;;;;;6.22;2.17;;;;;;;;;;4889176;29;20069;-74
2023/11/08 01:05:17;;;;;;;10.13;2.10;;;;;;;;;;4888614;29;20052;-74
2023/11/08 01:07:48;;;;;;;10.95;2.40;;;;;;;;;;4887804;29;20059;-75
2023/11/08 01:10:21;;;;;;;7.80;2.20;;;;;;;;;;4886402;29;20044;-74
2023/11/08 01:12:51;;;;;;;8.57;2.60;;;;;;;;;;4888282;29;20056;-75
2023/11/08 01:15:22;;;;;;;9.85;2.42;;;;;;;;;;4888505;29;20048;-74
2023/11/08 01:17:55;;;;;;;15.43;2.38;;;;;;;;;;4889835;29;20056;-74
2023/11/08 01:20:26;;;;;;;16.00;2.42;;;;;;;;;;4889119;29;20049;-74
2023/11/08 01:22:57;;;;;;;16.42;2.95;;;;;;;;;;4888809;29;20063;-75
2023/11/08 01:25:28;;;;;;;12.85;2.78;;;;;;;;;;4889542;29;20613;-75
2023/11/08 01:27:59;;;;;;;12.23;2.20;;;;;;;;;;4889654;29;20776;-74
2023/11/08 01:30:30;;;;;;;12.70;2.55;;;;;;;;;;4887770;29;20057;-75
2023/11/08 01:33:00;;;;;;;21.17;3.05;;;;;;;;;;4903441;29;20064;-74
2023/11/08 01:35:37;;;;;;;14.18;2.75;;;;;;;;;;4888723;29;20061;-74
2023/11/08 01:38:08;;;;;;;8.98;2.45;;;;;;;;;;4888618;29;20057;-74
2023/11/08 01:40:38;;;;;;;13.90;2.80;;;;;;;;;;4888810;29;20053;-74
2023/11/08 01:43:08;;;;;;;14.90;2.70;;;;;;;;;;4889150;29;20536;-73
2023/11/08 01:45:39;;;;;;;19.35;2.92;;;;;;;;;;4889193;29;20420;-73
2023/11/08 01:48:10;;;;;;;18.65;2.75;;;;;;;;;;4888848;29;20405;-73
2023/11/08 01:50:40;;;;;;;14.68;3.00;;;;;;;;;;4888596;29;20052;-72
2023/11/08 01:53:12;;;;;;;14.63;3.10;;;;;;;;;;4889262;29;20048;-74
2023/11/08 01:55:42;;;;;;;17.23;3.35;;;;;;;;;;4887334;29;20484;-73
2023/11/08 01:58:13;;;;;;;12.55;3.35;;;;;;;;;;4887620;29;20067;-74
2023/11/08 02:00:50;;;;;;;12.77;3.40;;;;;;;;;;4887971;29;20440;-73
2023/11/08 02:03:21;;;;;;;10.50;3.38;;;;;;;;;;4888253;29;20056;-72
2023/11/08 02:05:56;;;;;;;19.42;3.20;;;;;;;;;;4886689;29;20060;-73
2023/11/08 02:08:28;;;;;;;15.30;2.90;;;;;;;;;;4888751;29;20628;-73
2023/11/08 02:10:59;;;;;;;19.77;3.50;;;;;;;;;;4887066;29;20166;-72
2023/11/08 02:13:35;;;;;;;20.50;3.55;;;;;;;;;;4888549;29;20056;-72
2023/11/08 02:16:06;;;;;;;14.18;2.60;;;;;;;;;;4903196;29;20056;-73
2023/11/08 02:18:36;;;;;;;16.52;2.92;;;;;;;;;;4888224;29;20048;-73
2023/11/08 02:21:13;;;;;;;8.18;3.05;;;;;;;;;;4888695;29;20045;-73
2023/11/08 02:23:44;;;;;;;10.65;2.45;;;;;;;;;;4888044;29;20056;-72
2023/11/08 02:26:15;;;;;;;16.25;3.00;;;;;;;;;;4887053;29;20048;-73
2023/11/08 02:28:47;;;;;;;12.55;2.90;;;;;;;;;;4888498;29;20511;-73
2023/11/08 02:31:18;;;;;;;16.48;2.83;;;;;;;;;;4887194;29;20060;-72
2023/11/08 02:33:48;;;;;;;19.42;2.90;;;;;;;;;;4887851;29;20420;-73
2023/11/08 02:36:19;;;;;;;13.15;2.55;;;;;;;;;;4888041;29;20049;-73
2023/11/08 02:38:50;;;;;;;10.98;3.05;;;;;;;;;;4886382;29;20086;-73
2023/11/08 02:41:21;;;;;;;11.95;2.63;;;;;;;;;;4887688;29;20064;-73
2023/11/08 02:43:52;;;;;;;15.43;2.40;;;;;;;;;;4887532;29;20076;-73
2023/11/08 02:46:22;;;;;;;11.40;2.97;;;;;;;;;;4886418;29;20048;-73
2023/11/08 02:48:57;;;;;;;16.67;2.72;;;;;;;;;;4888256;29;20057;-73
2023/11/08 02:51:31;;;;;;;9.23;2.85;;;;;;;;;;4887768;29;20063;-73
2023/11/08 02:54:02;;;;;;;16.38;3.03;;;;;;;;;;4887440;29;20516;-73
2023/11/08 02:56:38;;;;;;;13.90;2.42;;;;;;;;;;4888268;29;20401;-73
2023/11/08 02:59:10;;;;;;;13.52;2.65;;;;;;;;;;4888470;29;20057;-73
2023/11/08 03:01:41;;;;;;;15.00;3.10;;;;;;;;;;4871592;29;20128;-73
2023/11/08 03:04:11;;;;;;;12.07;3.00;;;;;;;;;;4887673;29;20052;-73
2023/11/08 03:06:43;;;;;;;11.23;2.60;;;;;;;;;;4888041;29;20413;-73
2023/11/08 03:09:13;;;;;;;9.68;3.17;;;;;;;;;;4886297;29;20061;-73
2023/11/08 03:11:44;;;;;;;11.23;2.72;;;;;;;;;;4887476;29;20061;-72
2023/11/08 03:14:15;;;;;;;8.85;3.00;;;;;;;;;;4885947;29;20056;-73
2023/11/08 03:16:45;;;;;;;8.98;3.13;;;;;;;;;;4887064;29;20045;-73
2023/11/08 03:19:15;;;;;;;8.70;2.75;;;;;;;;;;4887240;29;20048;-74
2023/11/08 03:21:46;;;;;;;9.02;2.50;;;;;;;;;;4887030;29;20049;-73
2023/11/08 03:24:18;;;;;;;11.60;3.10;;;;;;;;;;4887482;29;20436;-73
2023/11/08 03:26:49;;;;;;;6.32;2.60;;;;;;;;;;4887136;29;20053;-73
2023/11/08 03:29:20;;;;;;;9.05;2.72;;;;;;;;;;4887523;29;20059;-73
2023/11/08 03:31:50;;;;;;;5.80;2.30;;;;;;;;;;4887414;29;20072;-73
2023/11/08 03:34:21;;;;;;;10.05;2.42;;;;;;;;;;4887891;29;20056;-72
2023/11/08 03:36:53;;;;;;;4.97;2.70;;;;;;;;;;4887189;29;20056;-73
2023/11/08 03:39:24;;;;;;;12.20;2.47;;;;;;;;;;4890191;29;20052;-73
2023/11/08 03:41:53;;;;;;;5.70;2.75;;;;;;;;;;4891738;29;20091;-74
2023/11/08 03:44:24;;;;;;;10.82;2.65;;;;;;;;;;4891920;29;20055;-73
2023/11/08 03:46:55;;;;;;;8.57;2.72;;;;;;;;;;4891431;29;20105;-73
2023/11/08 03:49:24;;;;;;;12.23;2.65;;;;;;;;;;4891516;29;20056;-73
2023/11/08 03:51:55;;;;;;;9.23;2.63;;;;;;;;;;4890705;29;20053;-73
2023/11/08 03:54:25;;;;;;;4.55;2.58;;;;;;;;;;4890406;29;20067;-73
2023/11/08 03:56:57;;;;;;;4.70;2.40;;;;;;;;;;4890453;29;20052;-74
2023/11/08 03:59:27;;;;;;;7.13;2.40;;;;;;;;;;4889526;29;20064;-73
2023/11/08 04:01:57;;;;;;;5.97;2.13;;;;;;;;;;4890601;29;20063;-73
2023/11/08 04:04:31;;;;;;;6.95;2.60;;;;;;;;;;4890614;29;20053;-73
2023/11/08 04:07:02;;;;;;;5.60;2.10;;;;;;;;;;4890127;29;20051;-73
2023/11/08 04:09:33;;;;;;;10.20;2.72;;;;;;;;;;4889986;29;20056;-73
2023/11/08 04:12:03;;;;;;;14.15;2.83;;;;;;;;;;4890814;29;20049;-73
2023/11/08 04:14:34;;;;;;;7.95;2.55;;;;;;;;;;4890635;29;20052;-73
2023/11/08 04:17:08;;;;;;;13.18;2.67;;;;;;;;;;4891125;29;20064;-73
2023/11/08 04:19:39;;;;;;;10.45;2.45;;;;;;;;;;4890830;29;20052;-74
2023/11/08 04:22:10;;;;;;;10.18;2.40;;;;;;;;;;4890140;29;20079;-73
2023/11/08 04:24:41;;;;;;;6.97;2.85;;;;;;;;;;4890276;29;20056;-73
2023/11/08 04:27:12;;;;;;;8.65;2.50;;;;;;;;;;4890264;29;20056;-73
2023/11/08 04:29:43;;;;;;;10.90;2.45;;;;;;;;;;4889735;29;20060;-73
2023/11/08 04:32:13;;;;;;;9.00;2.97;;;;;;;;;;4889721;29;20456;-73
2023/11/08 04:34:44;;;;;;;11.13;2.53;;;;;;;;;;4889933;29;20057;-74
2023/11/08 04:37:15;;;;;;;13.65;2.90;;;;;;;;;;4890310;29;20508;-73
2023/11/08 04:39:50;;;;;;;6.32;2.28;;;;;;;;;;4889950;29;20055;-73
2023/11/08 04:42:20;;;;;;;7.60;2.20;;;;;;;;;;4888448;29;20061;-73
2023/11/08 04:44:53;;;;;;;6.68;2.22;;;;;;;;;;4889286;29;20053;-72
2023/11/08 04:47:25;;;;;;;7.43;2.38;;;;;;;;;;4889888;29;20048;-73
2023/11/08 04:49:59;;;;;;;3.25;1.98;;;;;;;;;;4890023;29;20083;-73
2023/11/08 04:52:30;;;;;;;6.57;2.20;;;;;;;;;;4890243;29;20049;-73
2023/11/08 04:55:02;;;;;;;7.55;2.28;;;;;;;;;;4889660;29;20056;-73
2023/11/08 04:57:32;;;;;;;10.30;2.20;;;;;;;;;;4889229;29;20059;-72
2023/11/08 05:00:05;;;;;;;9.10;2.03;;;;;;;;;;4889528;29;21187;-73
2023/11/08 05:02:35;;;;;;;8.63;2.63;;;;;;;;;;4889715;29;20065;-73
2023/11/08 05:05:05;;;;;;;8.07;2.58;;;;;;;;;;4889461;29;20508;-73
2023/11/08 05:07:36;;;;;;;6.28;2.70;;;;;;;;;;4889301;29;20064;-73
2023/11/08 05:10:08;;;;;;;8.00;2.50;;;;;;;;;;4889382;29;20052;-73
2023/11/08 05:12:39;;;;;;;8.15;2.28;;;;;;;;;;4889452;29;20052;-72
2023/11/08 05:15:09;;;;;;;7.25;2.50;;;;;;;;;;4888752;29;20059;-74
2023/11/08 05:17:42;;;;;;;9.50;2.58;;;;;;;;;;4889720;29;20056;-73
2023/11/08 05:20:14;;;;;;;5.80;2.50;;;;;;;;;;4889249;29;20516;-73
2023/11/08 05:22:45;;;;;;;7.15;2.28;;;;;;;;;;4888875;29;20052;-74
2023/11/08 05:25:15;;;;;;;5.82;1.77;;;;;;;;;;4889134;29;20045;-74
2023/11/08 05:27:45;;;;;;;7.80;2.05;;;;;;;;;;4889367;29;20508;-73
2023/11/08 05:30:19;;;;;;;5.30;2.08;;;;;;;;;;4888991;29;20048;-73
2023/11/08 05:32:50;;;;;;;8.52;2.13;;;;;;;;;;4888682;29;20416;-73
2023/11/08 05:35:20;;;;;;;5.22;1.92;;;;;;;;;;4888922;29;20452;-73
2023/11/08 05:37:50;;;;;;;5.13;2.22;;;;;;;;;;4889195;29;20052;-73
2023/11/08 05:40:20;;;;;;;9.80;2.22;;;;;;;;;;4889620;29;20040;-72
2023/11/08 05:42:53;;;;;;;7.70;1.90;;;;;;;;;;4890226;29;20508;-74
2023/11/08 05:45:24;;;;;;;5.10;2.22;;;;;;;;;;4887154;29;20052;-73
2023/11/08 05:47:55;;;;;;;3.53;1.73;;;;;;;;;;4888489;29;20044;-73
2023/11/08 05:50:25;;;;;;;3.70;1.77;;;;;;;;;;4888846;29;20048;-74
2023/11/08 05:52:56;;;;;;;12.63;2.55;;;;;;;;;;4888664;29;20068;-73
2023/11/08 05:55:26;;;;;;;8.80;1.98;;;;;;;;;;4888584;29;20052;-73
2023/11/08 05:57:57;;;;;;;4.05;1.80;;;;;;;;;;4888887;29;20095;-73
2023/11/08 06:00:27;;;;;;;7.75;2.35;;;;;;;;;;4888182;29;20048;-73
2023/11/08 06:02:57;;;;;;;7.75;2.13;;;;;;;;;;4887996;29;20405;-73
2023/11/08 06:05:30;;;;;;;7.32;2.08;;;;;;;;;;4888623;29;20059;-73
2023/11/08 06:08:03;;;;;;;4.88;1.83;;;;;;;;;;4888306;29;20052;-74
2023/11/08 06:10:34;;;;;;;5.13;1.73;;;;;;;;;;4888195;29;20509;-73
2023/11/08 06:13:04;;;;;;;7.85;2.20;;;;;;;;;;4888534;29;20045;-73
2023/11/08 06:15:34;;;;;;;6.55;2.10;;;;;;;;;;4888654;29;20079;-73
2023/11/08 06:18:08;;;;;;;9.13;2.15;;;;;;;;;;4888639;29;20060;-73
2023/11/08 06:20:39;;;;;;;7.10;2.15;;;;;;;;;;4887877;29;20052;-73
2023/11/08 06:23:10;;;;;;;6.28;2.13;;;;;;;;;;4888438;29;20835;-74
2023/11/08 06:25:39;;;;;;;3.03;1.85;;;;;;;;;;4887532;29;20516;-73
2023/11/08 06:28:10;;;;;;;9.07;2.00;;;;;;;;;;4886909;29;20052;-73
2023/11/08 06:30:42;;;;;;;4.50;1.90;;;;;;;;;;4887953;29;20059;-73
2023/11/08 06:33:12;;;;;;;5.50;2.78;;;;;;;;;;4888278;29;20048;-73
2023/11/08 06:35:43;;;;;;;8.52;2.30;;;;;;;;;;4887905;29;20056;-73
2023/11/08 06:38:15;;;;;;;5.82;1.98;;;;;;;;;;4887327;29;20130;-73
2023/11/08 06:40:45;;;;;;;6.28;2.85;;;;;;;;;;4902521;29;20428;-73
2023/11/08 06:43:15;;;;;;;4.90;2.30;;;;;;;;;;4887085;29;20056;-73
2023/11/08 06:45:45;;;;;;;12.07;2.38;;;;;;;;;;4887575;29;20052;-72
2023/11/08 06:48:16;;;;;;;5.75;2.50;;;;;;;;;;4888230;29;20052;-73
2023/11/08 06:50:50;;;;;;;7.43;2.28;;;;;;;;;;4887629;29;20727;-73
2023/11/08 06:53:22;;;;;;;7.57;2.42;;;;;;;;;;4887439;29;20068;-73
2023/11/08 06:55:57;;;;;;;8.02;2.92;;;;;;;;;;4888187;29;20503;-73
2023/11/08 06:58:30;;;;;;;8.38;2.15;;;;;;;;;;4887557;29;20508;-73
2023/11/08 07:01:05;;;;;;;8.80;2.70;;;;;;;;;;4887361;29;20599;-73
2023/11/08 07:03:40;;;;;;;7.82;2.22;;;;;;;;;;4887606;29;20512;-73
2023/11/08 07:06:11;;;;;;;7.05;2.47;;;;;;;;;;4887500;29;20048;-73
2023/11/08 07:08:42;;;;;;;6.10;2.25;;;;;;;;;;4886872;29;20444;-73
2023/11/08 07:11:12;;;;;;;3.88;2.13;;;;;;;;;;4887217;29;20052;-72
2023/11/08 07:13:44;;;;;;;6.07;2.25;;;;;;;;;;4886895;29;20504;-73
2023/11/08 07:16:14;;;;;;;5.72;1.80;;;;;;;;;;4887328;29;20526;-73
2023/11/08 07:18:45;;;;;;;2.70;1.80;;;;;;;;;;4887390;29;20428;-73
2023/11/08 07:21:21;;;;;;;3.80;1.98;;;;;;;;;;4886456;29;20057;-72
2023/11/08 07:23:52;;;;;;;4.70;1.85;;;;;;;;;;4887659;29;20052;-72
2023/11/08 07:26:22;;;;;;;8.02;2.58;;;;;;;;;;4887296;29;20590;-73
2023/11/08 07:28:52;;;;;;;5.78;2.00;;;;;;;;;;4886745;29;20056;-73
2023/11/08 07:31:22;;;;;;;8.90;2.17;;;;;;;;;;4887705;29;20053;-73
2023/11/08 07:33:54;;;;;;;7.38;2.22;;;;;;;;;;4887176;29;20049;-73
2023/11/08 07:36:29;;;;;;;5.07;1.80;;;;;;;;;;4887588;29;20044;-72
2023/11/08 07:39:01;;;;;;;6.65;2.03;;;;;;;;;;4887419;29;20055;-73
2023/11/08 07:41:33;;;;;;;8.68;2.42;;;;;;;;;;4887360;29;20162;-72
2023/11/08 07:44:03;;;;;;;6.82;2.30;;;;;;;;;;4887122;29;20583;-73
2023/11/08 07:46:34;;;;;;;5.13;1.80;;;;;;;;;;4887115;29;20044;-73
2023/11/08 07:49:04;;;;;;;5.22;2.30;;;;;;;;;;4887433;29;20046;-73
2023/11/08 07:51:35;;;;;;;9.20;2.67;;;;;;;;;;4887247;29;20049;-73
2023/11/08 07:54:05;;;;;;;5.55;1.95;;;;;;;;;;4887265;29;20500;-73
2023/11/08 07:56:37;;;;;;;5.40;1.83;;;;;;;;;;4886962;29;20060;-73
2023/11/08 07:59:08;;;;;;;3.40;1.77;;;;;;;;;;4886610;29;20052;-72
2023/11/08 08:01:38;;;;;;;4.20;1.77;;;;;;;;;;4887102;29;20416;-73
2023/11/08 08:04:08;;;;;;;3.90;1.88;;;;;;;;;;4886819;29;20459;-73
2023/11/08 08:06:40;;;;;;;7.18;1.98;;;;;;;;;;4886296;29;20520;-73
2023/11/08 08:09:17;;;;;;;3.83;1.65;;;;;;;;;;4886762;29;20052;-73
2023/11/08 08:11:48;;;;;;;5.15;1.52;;;;;;;;;;4885923;29;20056;-73
2023/11/08 08:14:20;;;;;;;5.25;2.00;;;;;;;;;;4886633;29;20045;-73
2023/11/08 08:16:55;;;;;;;3.67;1.70;;;;;;;;;;4886434;29;20056;-73
2023/11/08 08:19:29;;;;;;;4.80;1.83;;;;;;;;;;4886372;29;20055;-73
2023/11/08 08:22:01;;;;;;;3.38;1.92;;;;;;;;;;4886883;29;20059;-73
2023/11/08 08:24:32;;;;;;;4.75;1.90;;;;;;;;;;4888602;29;20056;-73
2023/11/08 08:27:02;;;;;;;4.55;1.70;;;;;;;;;;4890397;29;20052;-73
2023/11/08 08:29:33;;;;;;;4.90;1.73;;;;;;;;;;4890665;29;20878;-73
2023/11/08 08:32:04;;;;;;;5.60;2.03;;;;;;;;;;4888987;29;20052;-74
2023/11/08 08:34:35;;;;;;;8.77;1.98;;;;;;;;;;4888739;29;20044;-74
2023/11/08 08:37:06;;;;;;;3.10;1.58;;;;;;;;;;4889726;29;20082;-73
2023/11/08 08:39:39;;;;;;;3.63;1.83;;;;;;;;;;4890012;29;20056;-73
2023/11/08 08:42:11;;;;;;;8.38;1.83;;;;;;;;;;4889771;29;20044;-73
2023/11/08 08:44:44;;;;;;;5.97;1.90;;;;;;;;;;4889926;29;20052;-73
2023/11/08 08:47:16;;;;;;;5.80;1.77;;;;;;;;;;4890489;29;20063;-74
2023/11/08 08:49:55;;;;;;;8.43;1.63;;;;;;;;;;4889991;29;20060;-73
2023/11/08 08:52:26;;;;;;;8.20;2.22;;;;;;;;;;4889716;29;20052;-74
2023/11/08 08:54:56;;;;;;;6.07;1.42;;;;;;;;;;4889845;29;20049;-73
2023/11/08 08:57:26;;;;;;;3.92;1.50;;;;;;;;;;4904635;29;20045;-74
2023/11/08 08:59:56;;;;;;;9.52;1.90;;;;;;;;;;4890288;29;20048;-73
2023/11/08 09:02:27;;;;;;;6.32;2.15;;;;;;;;;;4890166;29;20048;-73
2023/11/08 09:04:59;;;;;;;9.13;1.88;;;;;;;;;;4889288;29;20059;-73
2023/11/08 09:07:30;;;;;;;7.13;1.73;;;;;;;;;;4889193;29;20068;-74
2023/11/08 09:10:00;;;;;;;3.13;1.60;;;;;;;;;;4889360;29;20892;-74
2023/11/08 09:12:32;;;;;;;13.65;1.80;;;;;;;;;;4889396;29;20057;-73
2023/11/08 09:15:04;;;;;;;13.35;2.33;;;;;;;;;;4889840;29;20056;-74
2023/11/08 09:17:35;;;;;;;28.67;2.50;;;;;;;;;;4889823;29;20048;-73
2023/11/08 09:20:08;;;;;;;25.48;2.53;;;;;;;;;;4890602;29;20056;-73
2023/11/08 09:22:40;;;;;;;44.22;2.67;;;;;;;;;;4889873;29;20048;-73
2023/11/08 09:25:13;;;;;;;13.30;2.00;;;;;;;;;;4890149;29;20052;-76
2023/11/08 09:27:44;;;;;;;11.77;1.88;;;;;;;;;;4890234;29;20531;-74
2023/11/08 09:30:14;;;;;;;24.70;2.10;;;;;;;;;;4888684;29;20053;-73
2023/11/08 09:32:46;;;;;;;15.70;2.67;;;;;;;;;;4889955;29;20044;-72
2023/11/08 09:35:16;;;;;;;6.32;1.92;;;;;;;;;;4889373;29;20056;-74
2023/11/08 09:37:47;;;;;;;4.55;1.98;;;;;;;;;;4888579;29;20044;-72
2023/11/08 09:40:17;;;;;;;7.35;1.90;;;;;;;;;;4903476;29;20819;-73
2023/11/08 09:42:48;;;;;;;8.02;1.88;;;;;;;;;;4888656;29;20053;-74
2023/11/08 09:45:27;;;;;;;6.97;1.90;;;;;;;;;;4888720;29;20037;-74
2023/11/08 09:47:58;;;;;;;4.38;2.10;;;;;;;;;;4888980;29;20500;-74
2023/11/08 09:50:30;;;;;;;11.15;3.67;;;;;;;;;;4888703;29;20670;-73
2023/11/08 09:53:03;;;;;;;6.85;1.98;;;;;;;;;;4888778;29;20060;-74
2023/11/08 09:55:33;;;;;;;12.13;2.35;;;;;;;;;;4888427;29;20416;-74
2023/11/08 09:58:06;;;;;;;4.63;1.63;;;;;;;;;;4888409;29;20053;-74
2023/11/08 10:00:40;;;;;;;12.82;1.90;;;;;;;;;;4888867;29;20056;-74
2023/11/08 10:03:12;;;;;;;6.57;1.90;;;;;;;;;;4888767;29;20060;-73
2023/11/08 10:05:46;;;;;;;5.50;1.83;;;;;;;;;;4888090;29;20048;-73
2023/11/08 10:08:18;;;;;;;5.13;1.75;;;;;;;;;;4888750;29;20049;-73
2023/11/08 10:10:50;;;;;;;13.73;1.85;;;;;;;;;;4888921;29;20130;-73
2023/11/08 10:13:23;;;;;;;15.02;2.05;;;;;;;;;;4889123;29;20407;-73
2023/11/08 10:15:57;;;;;;;16.98;2.70;;;;;;;;;;4888665;29;20044;-73
2023/11/08 10:18:34;;;;;;;14.63;3.78;;;;;;;;;;4887792;29;20122;-73
2023/11/08 10:21:26;;;;;;;19.55;2.38;;;;;;;;;;4888582;29;20056;-75
2023/11/08 10:24:15;;;;;;;7.97;1.92;;;;;;;;;;4888083;29;20086;-75
2023/11/08 10:26:46;;;;;;;23.13;4.72;;;;;;;;;;4887714;29;20052;-74
2023/11/08 10:29:25;;;;;;;12.02;2.80;;;;;;;;;;4888285;29;20063;-74
2023/11/08 10:31:56;;;;;;;5.22;1.98;;;;;;;;;;4888471;29;20057;-73
2023/11/08 10:34:27;;;;;;;7.78;2.10;;;;;;;;;;4889205;29;20045;-74
2023/11/08 10:36:58;;;;;;;6.25;2.00;;;;;;;;;;4890305;29;20052;-73
2023/11/08 10:39:29;;;;;;;4.75;1.67;;;;;;;;;;4888072;29;20052;-72
2023/11/08 10:41:59;;;;;;;5.70;1.70;;;;;;;;;;4888160;29;20213;-75
2023/11/08 10:44:30;;;;;;;4.82;1.83;;;;;;;;;;4888494;29;20056;-74
2023/11/08 10:47:01;;;;;;;5.88;2.53;;;;;;;;;;4886504;29;20071;-74
2023/11/08 10:49:32;;;;;;;7.93;2.30;;;;;;;;;;4921584;29;20056;-74
2023/11/08 10:52:08;;;;;;;9.48;2.00;;;;;;;;;;4924277;29;20090;-74
2023/11/08 10:54:41;;;;;;;8.00;1.98;;;;;;;;;;4925673;29;20046;-77
2023/11/08 10:57:15;;;;;;;12.93;2.65;;;;;;;;;;4925408;29;20051;-74
2023/11/08 10:59:52;;;;;;;12.95;1.90;;;;;;;;;;4925807;29;20047;-75
2023/11/08 11:02:49;;;;;;;6.97;2.22;;;;;;;;;;4924718;29;20071;-74
2023/11/08 11:05:24;;;;;;;20.48;2.33;;;;;;;;;;4925199;29;20055;-75
2023/11/08 11:07:56;;;;;;;12.98;2.92;;;;;;;;;;4924079;29;20074;-73
2023/11/08 11:10:32;;;;;;;8.27;2.65;;;;;;;;;;4923827;29;20060;-74
2023/11/08 11:13:09;;;;;;;16.45;2.58;;;;;;;;;;4925227;29;20523;-73
2023/11/08 11:16:06;;;;;;;15.70;2.80;;;;;;;;;;4925130;29;20435;-74
2023/11/08 11:18:54;;;;;;;8.73;2.10;;;;;;;;;;4923180;29;20062;-76
2023/11/08 11:21:30;;;;;;;13.05;3.00;;;;;;;;;;4925902;29;20056;-77
2023/11/08 11:24:01;;;;;;;14.68;3.10;;;;;;;;;;4923467;29;20044;-74
2023/11/08 11:26:46;;;;;;;18.13;3.15;;;;;;;;;;4925205;29;20106;-74
2023/11/08 11:29:19;;;;;;;12.30;2.30;;;;;;;;;;4925169;29;20051;-73
2023/11/08 11:31:49;;;;;;;11.60;2.50;;;;;;;;;;4924652;29;20511;-75
2023/11/08 11:34:25;;;;;;;11.88;2.58;;;;;;;;;;4924428;29;20044;-74
2023/11/08 11:37:02;;;;;;;5.90;2.22;;;;;;;;;;4925132;29;20055;-75
2023/11/08 11:39:34;;;;;;;8.50;2.08;;;;;;;;;;4924646;29;20051;-74
2023/11/08 11:42:17;;;;;;;6.22;2.20;;;;;;;;;;4925266;29;20415;-75
2023/11/08 11:44:59;;;;;;;9.40;2.38;;;;;;;;;;4925161;29;20414;-79
2023/11/08 11:47:30;;;;;;;6.43;1.90;;;;;;;;;;4925535;29;20388;-75
2023/11/08 11:50:05;;;;;;;10.77;2.60;;;;;;;;;;4924565;29;20052;-77
2023/11/08 11:52:37;;;;;;;4.88;2.20;;;;;;;;;;4923825;29;20043;-74
2023/11/08 11:55:09;;;;;;;7.40;2.53;;;;;;;;;;4926285;29;20415;-75
2023/11/08 11:57:41;;;;;;;14.57;3.72;;;;;;;;;;4926872;29;20431;-75
2023/11/08 12:00:14;;;;;;;4.45;2.03;;;;;;;;;;4928263;29;20051;-75
2023/11/08 12:02:45;;;;;;;7.35;3.50;;;;;;;;;;4928758;29;21242;-75
2023/11/08 12:05:16;;;;;;;5.25;2.50;;;;;;;;;;4928081;29;20055;-76
2023/11/08 12:07:51;;;;;;;8.73;2.60;;;;;;;;;;4928012;29;20054;-75
2023/11/08 12:10:29;;;;;;;13.98;2.72;;;;;;;;;;4928700;29;20086;-76
2023/11/08 12:13:10;;;;;;;11.52;2.53;;;;;;;;;;4930049;29;20047;-75
2023/11/08 12:15:40;;;;;;;7.03;2.92;;;;;;;;;;4928616;29;20051;-80
2023/11/08 12:18:13;;;;;;;14.02;2.85;;;;;;;;;;4927053;29;20044;-74
2023/11/08 12:20:45;;;;;;;4.35;2.30;;;;;;;;;;4928110;29;20067;-75
2023/11/08 12:23:16;;;;;;;11.95;5.07;;;;;;;;;;4926400;29;20502;-77
2023/11/08 12:25:47;;;;;;;7.53;2.80;;;;;;;;;;4927765;29;20423;-76
2023/11/08 12:28:17;;;;;;;11.23;2.95;;;;;;;;;;4928973;29;20052;-75
2023/11/08 12:30:48;;;;;;;8.82;2.47;;;;;;;;;;4926868;29;20415;-75
2023/11/08 12:33:19;;;;;;;11.10;2.60;;;;;;;;;;4928820;29;20129;-74
2023/11/08 12:35:55;;;;;;;16.60;9.73;;;;;;;;;;4929324;29;20062;-74
2023/11/08 12:38:27;;;;;;;7.60;2.85;;;;;;;;;;4911639;29;20052;-76
2023/11/08 12:41:06;;;;;;;6.97;2.60;;;;;;;;;;4927546;29;20415;-76
2023/11/08 12:43:37;;;;;;;9.98;2.40;;;;;;;;;;4927446;29;20048;-76
2023/11/08 12:46:28;;;;;;;11.43;3.45;;;;;;;;;;4928085;29;20517;-76
2023/11/08 12:49:24;;;;;;;7.13;2.13;;;;;;;;;;4927813;29;20533;-76
2023/11/08 12:51:55;;;;;;;6.15;2.47;;;;;;;;;;4926297;29;20055;-75
2023/11/08 12:54:27;;;;;;;8.80;3.17;;;;;;;;;;4927347;29;20052;-76
2023/11/08 12:56:57;;;;;;;6.78;2.78;;;;;;;;;;4927907;29;20167;-74
2023/11/08 12:59:28;;;;;;;7.43;2.25;;;;;;;;;;4927740;29;20055;-77
2023/11/08 13:02:07;;;;;;;8.00;2.70;;;;;;;;;;4927582;29;20527;-75
2023/11/08 13:04:45;;;;;;;4.95;2.15;;;;;;;;;;4927220;29;20058;-76
2023/11/08 13:07:15;;;;;;;4.40;2.05;;;;;;;;;;4926898;29;20506;-75
2023/11/08 13:09:46;;;;;;;13.65;2.45;;;;;;;;;;4926764;29;20051;-74
2023/11/08 13:12:18;;;;;;;7.57;2.17;;;;;;;;;;4926034;29;20063;-75
2023/11/08 13:14:49;;;;;;;7.40;1.92;;;;;;;;;;4928169;29;20056;-75
2023/11/08 13:17:21;;;;;;;6.15;1.98;;;;;;;;;;4927464;29;20055;-74
2023/11/08 13:19:52;;;;;;;7.93;1.95;;;;;;;;;;4927298;29;20055;-76
2023/11/08 13:22:27;;;;;;;5.30;2.10;;;;;;;;;;4925548;29;20055;-75
2023/11/08 13:24:57;;;;;;;10.63;2.33;;;;;;;;;;4925547;29;20047;-75
2023/11/08 13:27:28;;;;;;;7.80;1.98;;;;;;;;;;4926992;29;20514;-79
2023/11/08 13:29:59;;;;;;;6.72;2.45;;;;;;;;;;4926679;29;20048;-75
2023/11/08 13:32:31;;;;;;;6.80;1.95;;;;;;;;;;4926950;29;20036;-77
2023/11/08 13:35:05;;;;;;;5.05;1.88;;;;;;;;;;4927049;29;20051;-74
2023/11/08 13:37:35;;;;;;;4.82;2.00;;;;;;;;;;4927491;29;20043;-74
2023/11/08 13:40:08;;;;;;;7.82;2.20;;;;;;;;;;4926915;29;20814;-74
2023/11/08 13:42:38;;;;;;;3.97;2.10;;;;;;;;;;4926179;29;20047;-75
2023/11/08 13:45:08;;;;;;;8.30;2.05;;;;;;;;;;4926413;29;20058;-74
2023/11/08 13:47:39;;;;;;;4.07;2.03;;;;;;;;;;4926702;29;20071;-75
2023/11/08 13:50:12;;;;;;;7.47;2.33;;;;;;;;;;4925162;29;20048;-75
2023/11/08 13:52:43;;;;;;;8.50;1.77;;;;;;;;;;4927025;29;20388;-78
2023/11/08 13:55:13;;;;;;;9.65;2.33;;;;;;;;;;4927162;29;20680;-76
2023/11/08 13:57:45;;;;;;;8.98;2.58;;;;;;;;;;4925409;29;20043;-74
2023/11/08 14:00:20;;;;;;;13.10;2.10;;;;;;;;;;4925983;29;20067;-74
2023/11/08 14:02:52;;;;;;;4.40;1.92;;;;;;;;;;4926541;29;20066;-75
2023/11/08 14:05:22;;;;;;;9.60;2.13;;;;;;;;;;4926147;29;20056;-75
2023/11/08 14:07:53;;;;;;;5.20;2.67;;;;;;;;;;4926497;29;20051;-75
2023/11/08 14:10:23;;;;;;;7.05;1.83;;;;;;;;;;4926560;29;20051;-74
2023/11/08 14:12:54;;;;;;;11.05;2.38;;;;;;;;;;4924578;29;20511;-74
2023/11/08 14:15:25;;;;;;;8.10;2.10;;;;;;;;;;4926412;29;20536;-75
2023/11/08 14:17:59;;;;;;;6.53;2.00;;;;;;;;;;4925612;29;20043;-75
2023/11/08 14:20:30;;;;;;;7.35;1.90;;;;;;;;;;4925881;29;20063;-75
2023/11/08 14:23:01;;;;;;;6.90;1.90;;;;;;;;;;4925707;29;20040;-79
2023/11/08 14:25:31;;;;;;;7.07;1.85;;;;;;;;;;4926867;29;20044;-75
2023/11/08 14:28:02;;;;;;;5.10;1.88;;;;;;;;;;4926127;29;20055;-74
2023/11/08 14:30:32;;;;;;;8.93;2.03;;;;;;;;;;4926431;29;20040;-74
2023/11/08 14:33:02;;;;;;;9.10;1.63;;;;;;;;;;4925908;29;20409;-74
2023/11/08 14:35:33;;;;;;;8.48;2.28;;;;;;;;;;4924657;29;20823;-75
2023/11/08 14:38:04;;;;;;;5.57;2.22;;;;;;;;;;4925413;29;20047;-73
2023/11/08 14:40:35;;;;;;;8.88;2.20;;;;;;;;;;4926370;29;20128;-74
2023/11/08 14:43:06;;;;;;;11.90;2.67;;;;;;;;;;4924446;29;20055;-74
2023/11/08 14:45:39;;;;;;;12.35;2.25;;;;;;;;;;4925669;29;20051;-74
2023/11/08 14:48:10;;;;;;;9.95;2.00;;;;;;;;;;4924283;29;20056;-74
2023/11/08 14:50:41;;;;;;;6.55;2.22;;;;;;;;;;4923955;29;20056;-75
2023/11/08 14:53:12;;;;;;;7.35;3.20;;;;;;;;;;4926339;29;20047;-73
2023/11/08 14:55:47;;;;;;;11.75;2.13;;;;;;;;;;4925615;29;20059;-74
2023/11/08 14:58:18;;;;;;;8.98;2.20;;;;;;;;;;4925733;29;20067;-75
2023/11/08 15:00:50;;;;;;;13.50;1.90;;;;;;;;;;4924550;29;20058;-74
2023/11/08 15:03:20;;;;;;;7.70;1.90;;;;;;;;;;4925631;29;20064;-81
2023/11/08 15:05:51;;;;;;;11.35;1.73;;;;;;;;;;4924227;29;20051;-73
2023/11/08 15:08:23;;;;;;;5.80;1.90;;;;;;;;;;4925151;29;20055;-75